Pagina principale
METAR-TAF:

METAR-TAF

Aeroporti :

Decimomannu, Italia

Aeroporto di Decimomannu

latitudine: 39-21N, longitudine: 008-58E, altezza: 29 m

Osservazione

Il bollettino è stato emesso 1 ora e 10 minuti fa, alle 10:55 UTC
Vento 14 kt da nord-ovest
Temperature 16°C
Umidità 77%
Pressione 1016 hPa
Visibilità 10 km o più
Poco nuvoloso ad un'altezza di 2000 ft

METAR: LIED 191055Z 31014KT 9999 FEW020 16/12 Q1016 RMK SCT SCT200 VIS MIN 9999 WIND THR35 32010KT WIND THR17 /////KT BLU

Ora: 13:05 (12:05 UTC)

Previsione

Il bollettino è stato emesso 4 ore e 5 minuti fa, alle 08:00 UTC
Previsione valida dal 19 alle 09 UTC al 19 alle 18 UTC
Vento 5 kt da nord-ovest
Visibilità 10 km o più
Nubi sparse ad un'altezza di 2500 ft
Evoluzione graduale
dal 19 alle 11 UTC al 19 alle 13 UTC
Vento 15 kt da nord-ovest

TAF: LIED 190800Z 1909/1918 32005KT 9999 SCT025 BECMG 1911/1913 32015KT

Osservazioni e previsioni meteorologiche di più di 4000 aeroporti (messaggi METAR e TAF).

Le stazioni disponibili sono rappresentate dai dischi gialli e rossi sulla carta.

Puntare il mouse per vedere il nome della stazione.

Clicca sopra per visualizzare le osservazioni e previsioni meteorologiche.

Per cambiare la mappa : fare clic sui pulsanti verdi con una croce nera per ingrandire, il pulsante verde con un trattino per diminuire, o sulla freccia verde per le mappe adiacenti.


METAR-TAF: